createdAt,value
2023-03-15T00:00:48.865Z,100.00
2023-03-15T00:03:37.300Z,100.00
2023-03-15T00:06:22.836Z,100.00
2023-03-15T00:09:08.331Z,100.00
2023-03-15T00:11:56.288Z,100.00
2023-03-15T00:14:41.396Z,100.00
2023-03-15T00:17:26.348Z,100.00
2023-03-15T00:20:14.755Z,100.00
2023-03-15T00:22:59.905Z,100.00
2023-03-15T00:25:46.028Z,100.00
2023-03-15T00:28:31.219Z,100.00
2023-03-15T00:31:19.609Z,100.00
2023-03-15T00:34:04.792Z,100.00
2023-03-15T00:36:49.860Z,100.00
2023-03-15T00:39:37.857Z,100.00
2023-03-15T00:42:27.639Z,100.00
2023-03-15T00:45:12.760Z,100.00
2023-03-15T00:47:57.819Z,100.00
2023-03-15T00:50:43.096Z,100.00
2023-03-15T00:53:28.065Z,100.00
2023-03-15T00:56:19.813Z,100.00
2023-03-15T00:59:04.758Z,100.00
2023-03-15T01:01:50.034Z,100.00
2023-03-15T01:04:35.378Z,100.00
2023-03-15T01:07:21.423Z,100.00
2023-03-15T01:10:07.184Z,100.00
2023-03-15T01:12:52.182Z,100.00
2023-03-15T01:15:37.255Z,100.00
2023-03-15T01:18:22.516Z,100.00
2023-03-15T01:21:09.129Z,100.00
2023-03-15T01:23:55.092Z,100.00
2023-03-15T01:26:40.990Z,100.00
2023-03-15T01:29:26.349Z,100.00
2023-03-15T01:32:11.718Z,100.00
2023-03-15T01:34:57.240Z,100.00
2023-03-15T01:37:42.576Z,100.00
2023-03-15T01:40:27.884Z,100.00
2023-03-15T01:43:20.805Z,100.00
2023-03-15T01:46:34.714Z,100.00
2023-03-15T01:49:31.835Z,100.00
2023-03-15T01:52:25.436Z,100.00
2023-03-15T01:55:15.108Z,100.00
2023-03-15T01:58:01.123Z,100.00
2023-03-15T02:00:46.768Z,100.00
2023-03-15T02:03:46.765Z,100.00
2023-03-15T02:06:34.942Z,100.00
2023-03-15T02:09:22.150Z,100.00
2023-03-15T02:12:08.988Z,100.00
2023-03-15T02:14:54.755Z,100.00
2023-03-15T02:17:45.903Z,100.00
2023-03-15T02:21:15.842Z,100.00
2023-03-15T02:24:34.743Z,100.00
2023-03-15T02:27:27.096Z,100.00
2023-03-15T02:30:12.726Z,100.00
2023-03-15T02:33:00.075Z,100.00
2023-03-15T02:35:45.588Z,100.00
2023-03-15T02:38:30.938Z,100.00
2023-03-15T02:41:26.547Z,100.00
2023-03-15T02:44:16.253Z,100.00
2023-03-15T02:47:13.971Z,100.00
2023-03-15T02:49:59.236Z,100.00
2023-03-15T02:52:44.585Z,100.00
2023-03-15T02:55:32.734Z,100.00
2023-03-15T02:58:17.816Z,100.00
2023-03-15T03:01:03.191Z,100.00
2023-03-15T03:03:48.588Z,100.00
2023-03-15T03:06:33.872Z,100.00
2023-03-15T03:09:19.094Z,100.00
2023-03-15T03:12:04.482Z,100.00
2023-03-15T03:14:49.659Z,100.00
2023-03-15T03:17:37.471Z,100.00
2023-03-15T03:20:22.519Z,100.00
2023-03-15T03:23:07.710Z,100.00
2023-03-15T03:25:57.365Z,100.00
2023-03-15T03:28:44.842Z,100.00
2023-03-15T03:31:29.857Z,100.00
2023-03-15T03:34:15.734Z,100.00
2023-03-15T03:37:01.091Z,100.00
2023-03-15T03:39:46.310Z,100.00
2023-03-15T03:42:31.522Z,100.00
2023-03-15T03:45:16.809Z,100.00
2023-03-15T03:48:01.915Z,100.00
2023-03-15T03:50:47.211Z,100.00
2023-03-15T03:53:32.158Z,100.00
2023-03-15T03:56:17.214Z,100.00
2023-03-15T03:59:02.287Z,100.00
2023-03-15T04:01:48.309Z,100.00
2023-03-15T04:04:33.461Z,100.00
2023-03-15T04:07:18.637Z,100.00
2023-03-15T04:10:04.503Z,100.00
2023-03-15T04:12:49.505Z,100.00
2023-03-15T04:15:34.811Z,100.00
2023-03-15T04:18:19.714Z,100.00
2023-03-15T04:21:04.948Z,100.00
2023-03-15T04:23:50.141Z,100.00
2023-03-15T04:26:35.460Z,100.00
2023-03-15T04:29:21.547Z,100.00
2023-03-15T04:32:07.016Z,100.00
2023-03-15T04:34:52.044Z,100.00
2023-03-15T04:37:37.157Z,100.00
2023-03-15T04:40:24.168Z,100.00
2023-03-15T04:43:09.659Z,100.00
2023-03-15T04:45:54.521Z,100.00
2023-03-15T04:48:39.699Z,100.00
2023-03-15T04:51:24.887Z,100.00
2023-03-15T04:54:09.881Z,100.00
2023-03-15T04:56:54.972Z,100.00
2023-03-15T04:59:40.029Z,100.00
2023-03-15T05:02:25.085Z,100.00
2023-03-15T05:05:12.521Z,100.00
2023-03-15T05:07:57.791Z,100.00
2023-03-15T05:10:43.009Z,100.00
2023-03-15T05:13:28.439Z,100.00
2023-03-15T05:16:13.780Z,100.00
2023-03-15T05:18:59.248Z,100.00
2023-03-15T05:21:44.561Z,100.00
2023-03-15T05:24:30.365Z,100.00
2023-03-15T05:27:15.286Z,100.00
2023-03-15T05:30:04.167Z,100.00
2023-03-15T05:32:49.083Z,100.00
2023-03-15T05:35:34.104Z,100.00
2023-03-15T05:38:19.406Z,100.00
2023-03-15T05:41:04.828Z,100.00
2023-03-15T05:43:51.229Z,100.00
2023-03-15T05:46:36.131Z,100.00
2023-03-15T05:49:21.451Z,100.00
2023-03-15T05:52:06.722Z,100.00
2023-03-15T05:54:52.143Z,100.00
2023-03-15T05:57:37.527Z,100.00
2023-03-15T06:00:23.084Z,100.00
2023-03-15T06:03:08.184Z,100.00
2023-03-15T06:05:53.951Z,100.00
2023-03-15T06:08:39.269Z,100.00
2023-03-15T06:11:24.663Z,100.00
2023-03-15T06:14:09.869Z,100.00
2023-03-15T06:16:55.048Z,100.00
2023-03-15T06:19:40.120Z,100.00
2023-03-15T06:22:25.212Z,100.00
2023-03-15T06:25:10.639Z,100.00
2023-03-15T06:27:55.769Z,100.00
2023-03-15T06:30:41.689Z,100.00
2023-03-15T06:33:27.135Z,100.00
2023-03-15T06:36:12.914Z,100.00
2023-03-15T06:38:57.901Z,100.00
2023-03-15T06:41:43.219Z,100.00
2023-03-15T06:44:28.919Z,100.00
2023-03-15T06:47:14.097Z,100.00
2023-03-15T06:49:59.436Z,100.00
2023-03-15T06:52:44.463Z,100.00
2023-03-15T06:55:29.475Z,100.00
2023-03-15T06:58:14.741Z,100.00
2023-03-15T07:00:59.957Z,100.00
2023-03-15T07:03:45.222Z,100.00
2023-03-15T07:06:30.404Z,100.00
2023-03-15T07:09:15.545Z,100.00
2023-03-15T07:12:00.591Z,100.00
2023-03-15T07:14:46.657Z,100.00
2023-03-15T07:17:31.787Z,100.00
2023-03-15T07:20:17.382Z,100.00
2023-03-15T07:23:03.254Z,100.00
2023-03-15T07:25:55.085Z,100.00
2023-03-15T07:28:40.375Z,100.00
2023-03-15T07:31:25.349Z,100.00
2023-03-15T07:34:10.676Z,100.00
2023-03-15T07:36:56.183Z,100.00
2023-03-15T07:39:41.519Z,100.00
2023-03-15T07:42:26.811Z,100.00
2023-03-15T07:45:12.400Z,100.00
2023-03-15T07:47:57.541Z,100.00
2023-03-15T07:50:42.789Z,100.00
2023-03-15T07:53:28.317Z,100.00
2023-03-15T07:56:13.567Z,100.00
2023-03-15T07:59:00.893Z,100.00
2023-03-15T08:01:45.874Z,100.00
2023-03-15T08:04:31.672Z,100.00
2023-03-15T08:07:17.527Z,100.00
2023-03-15T08:10:06.311Z,100.00
2023-03-15T08:12:51.526Z,100.00
2023-03-15T08:15:37.149Z,100.00
2023-03-15T08:18:22.090Z,100.00
2023-03-15T08:21:07.373Z,100.00
2023-03-15T08:23:52.662Z,100.00
2023-03-15T08:26:37.958Z,100.00
2023-03-15T08:29:23.209Z,100.00
2023-03-15T08:32:08.854Z,100.00
2023-03-15T08:34:53.780Z,100.00
2023-03-15T08:37:40.196Z,100.00
2023-03-15T08:40:25.346Z,100.00
2023-03-15T08:43:10.908Z,100.00
2023-03-15T08:46:02.926Z,100.00
2023-03-15T08:48:48.307Z,100.00
2023-03-15T08:51:33.857Z,100.00
2023-03-15T08:54:18.936Z,100.00
2023-03-15T08:57:04.551Z,100.00
2023-03-15T08:59:50.148Z,100.00
2023-03-15T09:02:36.565Z,100.00
2023-03-15T09:05:25.022Z,100.00
2023-03-15T09:08:10.817Z,100.00
2023-03-15T09:10:57.387Z,100.00
2023-03-15T09:13:42.619Z,100.00
2023-03-15T09:16:27.714Z,100.00
2023-03-15T09:19:13.426Z,100.00
2023-03-15T09:22:10.787Z,100.00
2023-03-15T09:25:04.660Z,100.00
2023-03-15T09:27:50.227Z,100.00
2023-03-15T09:30:36.717Z,100.00
2023-03-15T09:33:22.520Z,100.00
2023-03-15T09:36:07.834Z,100.00
2023-03-15T09:38:52.865Z,100.00
2023-03-15T09:41:43.833Z,100.00
2023-03-15T09:44:44.566Z,100.00
2023-03-15T09:47:55.711Z,99.97
2023-03-15T09:51:06.109Z,98.31
2023-03-15T09:54:03.805Z,97.31
2023-03-15T09:57:14.717Z,96.08
2023-03-15T10:00:02.550Z,95.01
2023-03-15T10:03:00.731Z,94.31
2023-03-15T10:05:50.046Z,93.79
2023-03-15T10:08:35.380Z,93.64
2023-03-15T10:11:47.932Z,92.61
2023-03-15T10:14:46.960Z,91.58
2023-03-15T10:17:44.985Z,90.24
2023-03-15T10:20:34.683Z,89.32
2023-03-15T10:23:23.472Z,87.89
2023-03-15T10:26:14.727Z,87.46
2023-03-15T10:29:03.875Z,86.84
2023-03-15T10:31:51.930Z,85.95
2023-03-15T10:34:36.832Z,83.42
2023-03-15T10:37:23.728Z,83.16
2023-03-15T10:40:15.945Z,82.69
2023-03-15T10:43:01.108Z,82.63
2023-03-15T10:46:11.674Z,82.09
2023-03-15T10:49:09.575Z,81.18
2023-03-15T10:51:58.277Z,80.64
2023-03-15T10:54:44.943Z,80.26
2023-03-15T10:57:35.264Z,80.86
2023-03-15T11:00:32.455Z,79.79
2023-03-15T11:03:27.597Z,79.64
2023-03-15T11:06:22.650Z,78.98
2023-03-15T11:09:19.307Z,79.12
2023-03-15T11:12:06.835Z,77.51
2023-03-15T11:15:16.446Z,76.39
2023-03-15T11:18:01.476Z,74.57
2023-03-15T11:20:46.995Z,74.98
2023-03-15T11:23:36.764Z,75.16
2023-03-15T11:26:33.612Z,74.84
2023-03-15T11:29:26.786Z,74.10
2023-03-15T11:32:19.204Z,74.53
2023-03-15T11:35:15.921Z,74.65
2023-03-15T11:38:15.355Z,74.14
2023-03-15T11:41:05.132Z,74.24
2023-03-15T11:44:13.942Z,72.86
2023-03-15T11:47:05.367Z,73.15
2023-03-15T11:49:55.463Z,73.24
2023-03-15T11:52:41.355Z,73.33
2023-03-15T11:55:28.771Z,72.53
2023-03-15T11:58:44.556Z,72.93
2023-03-15T12:01:29.834Z,72.28
2023-03-15T12:04:33.231Z,72.25
2023-03-15T12:07:18.876Z,71.45
2023-03-15T12:10:04.340Z,70.59
2023-03-15T12:12:58.978Z,70.17
2023-03-15T12:15:47.395Z,70.39
2023-03-15T12:18:42.130Z,68.90
2023-03-15T12:21:44.266Z,67.76
2023-03-15T12:24:36.131Z,68.17
2023-03-15T12:27:21.690Z,69.30
2023-03-15T12:30:16.954Z,69.88
2023-03-15T12:33:03.316Z,69.24
2023-03-15T12:35:49.749Z,69.83
2023-03-15T12:38:43.338Z,69.25
2023-03-15T12:41:43.826Z,68.45
2023-03-15T12:44:32.017Z,69.11
2023-03-15T12:47:17.060Z,68.63
2023-03-15T12:50:42.309Z,68.23
2023-03-15T12:53:38.292Z,67.58
2023-03-15T12:56:34.185Z,67.79
2023-03-15T12:59:35.273Z,67.47
2023-03-15T13:02:41.797Z,67.77
2023-03-15T13:05:36.301Z,68.29
2023-03-15T13:08:30.146Z,69.11
2023-03-15T13:11:35.633Z,68.79
2023-03-15T13:14:49.063Z,68.88
2023-03-15T13:17:52.195Z,69.44
2023-03-15T13:20:42.414Z,69.45
2023-03-15T13:23:30.026Z,69.51
2023-03-15T13:26:34.038Z,70.25
2023-03-15T13:29:30.167Z,70.46
2023-03-15T13:32:17.729Z,68.32
2023-03-15T13:35:03.837Z,68.32
2023-03-15T13:37:48.958Z,67.69
2023-03-15T13:40:34.342Z,67.87
2023-03-15T13:43:19.975Z,68.20
2023-03-15T13:46:06.046Z,67.15
2023-03-15T13:48:53.518Z,67.36
2023-03-15T13:51:40.049Z,67.55
2023-03-15T13:54:33.613Z,68.01
2023-03-15T13:57:22.131Z,67.79
2023-03-15T14:00:17.601Z,67.81
2023-03-15T14:03:07.138Z,67.80
2023-03-15T14:05:55.351Z,68.41
2023-03-15T14:08:41.075Z,68.22
2023-03-15T14:11:26.398Z,68.61
2023-03-15T14:14:31.756Z,68.91
2023-03-15T14:17:28.735Z,69.07
2023-03-15T14:20:17.456Z,69.42
2023-03-15T14:23:06.424Z,69.87
2023-03-15T14:26:01.916Z,70.39
2023-03-15T14:28:54.117Z,70.65
2023-03-15T14:31:46.057Z,70.92
2023-03-15T14:34:43.674Z,70.93
2023-03-15T14:37:43.521Z,71.35
2023-03-15T14:40:34.964Z,71.24
2023-03-15T14:43:20.691Z,71.54
2023-03-15T14:46:07.321Z,71.18
2023-03-15T14:48:52.907Z,71.31
2023-03-15T14:51:38.160Z,71.35
2023-03-15T14:54:24.083Z,70.74
2023-03-15T14:57:09.495Z,71.30
2023-03-15T14:59:55.032Z,72.24
2023-03-15T15:02:40.960Z,72.72
2023-03-15T15:05:32.248Z,73.21
2023-03-15T15:08:22.415Z,73.48
2023-03-15T15:11:11.341Z,73.99
2023-03-15T15:13:57.836Z,74.25
2023-03-15T15:16:43.551Z,74.69
2023-03-15T15:19:28.642Z,75.19
2023-03-15T15:22:14.430Z,75.33
2023-03-15T15:24:59.440Z,74.91
2023-03-15T15:27:45.080Z,74.67
2023-03-15T15:30:31.347Z,75.51
2023-03-15T15:33:16.449Z,75.85
2023-03-15T15:36:02.332Z,75.87
2023-03-15T15:38:47.745Z,76.06
2023-03-15T15:41:33.086Z,75.68
2023-03-15T15:44:21.940Z,75.70
2023-03-15T15:47:07.088Z,75.68
2023-03-15T15:49:52.297Z,76.67
2023-03-15T15:52:40.979Z,76.69
2023-03-15T15:55:31.024Z,76.91
2023-03-15T15:58:17.500Z,77.19
2023-03-15T16:01:03.718Z,77.35
2023-03-15T16:03:49.413Z,77.41
2023-03-15T16:06:36.214Z,78.16
2023-03-15T16:09:22.993Z,78.31
2023-03-15T16:12:16.022Z,79.28
2023-03-15T16:15:01.346Z,79.75
2023-03-15T16:17:46.927Z,79.87
2023-03-15T16:20:32.082Z,80.64
2023-03-15T16:23:21.905Z,81.87
2023-03-15T16:26:07.178Z,82.67
2023-03-15T16:28:52.396Z,84.06
2023-03-15T16:31:37.283Z,85.17
2023-03-15T16:34:23.651Z,86.74
2023-03-15T16:37:18.006Z,87.99
2023-03-15T16:40:09.932Z,89.22
2023-03-15T16:42:56.060Z,89.87
2023-03-15T16:45:41.417Z,90.52
2023-03-15T16:48:26.736Z,90.98
2023-03-15T16:51:14.582Z,91.70
2023-03-15T16:54:14.929Z,91.55
2023-03-15T16:57:03.242Z,91.97
2023-03-15T16:59:48.556Z,92.58
2023-03-15T17:02:33.930Z,93.32
2023-03-15T17:05:20.757Z,93.97
2023-03-15T17:08:06.083Z,94.44
2023-03-15T17:10:51.411Z,95.12
2023-03-15T17:13:40.784Z,96.46
2023-03-15T17:16:26.421Z,97.33
2023-03-15T17:19:13.396Z,97.97
2023-03-15T17:21:59.052Z,99.24
2023-03-15T17:24:44.512Z,100.00
2023-03-15T17:27:50.687Z,100.00
2023-03-15T17:30:37.148Z,100.00
2023-03-15T17:33:25.940Z,100.00
2023-03-15T17:36:16.571Z,100.00
2023-03-15T17:39:02.778Z,100.00
2023-03-15T17:41:48.355Z,100.00
2023-03-15T17:44:33.796Z,100.00
2023-03-15T17:47:19.147Z,100.00
2023-03-15T17:50:04.780Z,100.00
2023-03-15T17:52:55.237Z,100.00
2023-03-15T17:55:40.750Z,100.00
2023-03-15T17:58:27.363Z,100.00
2023-03-15T18:01:19.681Z,100.00
2023-03-15T18:04:09.595Z,100.00
2023-03-15T18:06:55.359Z,100.00
2023-03-15T18:09:40.795Z,100.00
2023-03-15T18:12:25.761Z,100.00
2023-03-15T18:15:14.119Z,100.00
2023-03-15T18:17:59.038Z,100.00
2023-03-15T18:20:45.342Z,100.00
2023-03-15T18:23:30.657Z,100.00
2023-03-15T18:26:17.337Z,100.00
2023-03-15T18:29:02.247Z,100.00
2023-03-15T18:31:47.488Z,100.00
2023-03-15T18:34:32.728Z,100.00
2023-03-15T18:37:17.922Z,100.00
2023-03-15T18:40:03.429Z,100.00
2023-03-15T18:42:48.353Z,100.00
2023-03-15T18:45:36.197Z,100.00
2023-03-15T18:48:34.145Z,100.00
2023-03-15T18:51:25.968Z,100.00
2023-03-15T18:54:11.019Z,100.00
2023-03-15T18:56:56.529Z,100.00
2023-03-15T18:59:41.927Z,100.00
2023-03-15T19:02:27.628Z,100.00
2023-03-15T19:05:14.300Z,100.00
2023-03-15T19:07:59.929Z,100.00
2023-03-15T19:10:46.888Z,100.00
2023-03-15T19:13:32.236Z,100.00
2023-03-15T19:16:19.020Z,100.00
2023-03-15T19:19:04.117Z,100.00
2023-03-15T19:21:49.352Z,100.00
2023-03-15T19:24:36.280Z,100.00
2023-03-15T19:27:21.467Z,100.00
2023-03-15T19:30:09.187Z,100.00
2023-03-15T19:32:55.381Z,100.00
2023-03-15T19:35:43.489Z,100.00
2023-03-15T19:38:29.514Z,100.00
2023-03-15T19:41:14.848Z,100.00
2023-03-15T19:44:00.111Z,100.00
2023-03-15T19:46:45.548Z,100.00
2023-03-15T19:49:30.894Z,100.00
2023-03-15T19:52:16.250Z,100.00
2023-03-15T19:55:01.869Z,100.00
2023-03-15T19:57:47.716Z,100.00
2023-03-15T20:00:32.964Z,100.00
2023-03-15T20:03:18.127Z,100.00
2023-03-15T20:06:08.800Z,100.00
2023-03-15T20:08:54.001Z,100.00
2023-03-15T20:11:39.163Z,100.00
2023-03-15T20:14:24.241Z,100.00
2023-03-15T20:17:09.430Z,100.00
2023-03-15T20:19:55.102Z,100.00
2023-03-15T20:22:42.964Z,100.00
2023-03-15T20:25:28.310Z,100.00
2023-03-15T20:28:13.495Z,100.00
2023-03-15T20:30:59.127Z,100.00
2023-03-15T20:33:47.682Z,100.00
2023-03-15T20:36:33.558Z,100.00
2023-03-15T20:39:19.371Z,100.00
2023-03-15T20:42:04.539Z,100.00
2023-03-15T20:44:50.452Z,100.00
2023-03-15T20:47:35.945Z,100.00
2023-03-15T20:50:21.249Z,100.00
2023-03-15T20:53:06.850Z,100.00
2023-03-15T20:55:52.483Z,100.00
2023-03-15T20:58:37.578Z,100.00
2023-03-15T21:01:22.632Z,100.00
2023-03-15T21:04:08.003Z,100.00
2023-03-15T21:06:53.155Z,100.00
2023-03-15T21:09:38.538Z,100.00
2023-03-15T21:12:23.892Z,100.00
2023-03-15T21:15:09.656Z,100.00
2023-03-15T21:17:54.962Z,100.00
2023-03-15T21:20:40.224Z,100.00
2023-03-15T21:23:33.020Z,100.00
2023-03-15T21:26:18.477Z,100.00
2023-03-15T21:29:04.914Z,100.00
2023-03-15T21:31:50.000Z,100.00
2023-03-15T21:34:35.404Z,100.00
2023-03-15T21:37:20.644Z,100.00
2023-03-15T21:40:06.925Z,100.00
2023-03-15T21:42:52.001Z,100.00
2023-03-15T21:45:37.565Z,100.00
2023-03-15T21:48:23.065Z,100.00
2023-03-15T21:51:08.848Z,100.00
2023-03-15T21:53:53.860Z,100.00
2023-03-15T21:56:39.761Z,100.00
2023-03-15T21:59:27.870Z,100.00
2023-03-15T22:02:14.249Z,100.00
2023-03-15T22:04:59.690Z,100.00
2023-03-15T22:07:44.761Z,100.00
2023-03-15T22:10:30.041Z,100.00
2023-03-15T22:13:15.234Z,100.00
2023-03-15T22:16:01.372Z,100.00
2023-03-15T22:18:46.635Z,100.00
2023-03-15T22:21:31.633Z,100.00
2023-03-15T22:24:16.988Z,100.00
2023-03-15T22:27:02.405Z,100.00
2023-03-15T22:29:47.529Z,100.00
2023-03-15T22:32:32.866Z,100.00
2023-03-15T22:35:18.344Z,100.00
2023-03-15T22:38:10.049Z,100.00
2023-03-15T22:41:03.609Z,100.00
2023-03-15T22:43:48.624Z,100.00
2023-03-15T22:46:35.269Z,100.00
2023-03-15T22:49:20.664Z,100.00
2023-03-15T22:52:06.252Z,100.00
2023-03-15T22:54:51.270Z,100.00
2023-03-15T22:57:36.389Z,100.00
2023-03-15T23:00:22.447Z,100.00
2023-03-15T23:03:08.071Z,100.00
2023-03-15T23:05:54.977Z,100.00
2023-03-15T23:08:39.842Z,100.00
2023-03-15T23:11:24.906Z,100.00
2023-03-15T23:14:10.241Z,100.00
2023-03-15T23:16:55.480Z,100.00
2023-03-15T23:19:41.542Z,100.00
2023-03-15T23:22:26.980Z,100.00
2023-03-15T23:25:13.756Z,100.00
2023-03-15T23:27:59.145Z,100.00
2023-03-15T23:30:45.691Z,100.00
2023-03-15T23:33:34.179Z,100.00
2023-03-15T23:36:19.349Z,100.00
2023-03-15T23:39:05.452Z,100.00
2023-03-15T23:41:51.421Z,100.00
2023-03-15T23:44:36.816Z,100.00
2023-03-15T23:47:23.900Z,100.00
2023-03-15T23:50:10.249Z,100.00
2023-03-15T23:52:56.268Z,100.00
2023-03-15T23:55:44.588Z,100.00
2023-03-15T23:58:29.933Z,100.00
